Terminal Aerodrome Forecast
Issued by NWS Chicago, IL

Home | Current Version | Previous Version | Graphics & Text | Print | Product List | Glossary On
Versions: 1 2 3 4 5 6 7 8 9 10 11 12 13 14 15 16 17 18 19 20 21 22 23 24 25 26
000
FTUS43 KLOT 190520
TAFRFD
TAF
KRFD 190520Z 1906/2006 VRB02KT P6SM SKC
     FM191600 12004KT P6SM FEW250
     FM191900 16007KT P6SM SCT250
     FM200200 12006KT P6SM BKN250=

USA.gov is the U.S. government's official web portal to all federal, state and local government web resources and services.